Saint-Raphael, Canada
Current Conditions -  °F | °C
As of 6:00 AM on Sunday 21 Dec 2014 (Local Time) from CYQB Reporting Station
Light Snow Light Snow  
Wind Chill:   Ceiling: 1300
Heat Index: 14°   Visibility: 15mi
Dew Point:   Wind: 6mph
Humidity: 79%   Direction: 10°N
Pressure: 30.37"   Gusts: NA
Location:  46.78°N, 70.75°W
Report Text: CYQB 211100Z 01005KT 15SM -SN OVC013 M10/M13 A3037 RMK SC8 SLP289
Loading
Personal Weather Stations






























Interactive Weather Map New forecast layout! Learn more

10-Day Weather Forecast

Advertisements
Track Severe Weather on mobile